sensor_id;sensor_type;location;lat;lon;timestamp;temperature;humidity
40053;DHT22;25758;48.200;16.338;2022-10-16T00:00:17;13.80;99.90
40053;DHT22;25758;48.200;16.338;2022-10-16T00:02:43;13.80;99.90
40053;DHT22;25758;48.200;16.338;2022-10-16T00:05:08;13.80;99.90
40053;DHT22;25758;48.200;16.338;2022-10-16T00:07:34;13.80;99.90
40053;DHT22;25758;48.200;16.338;2022-10-16T00:09:59;13.80;99.90
40053;DHT22;25758;48.200;16.338;2022-10-16T00:12:25;13.80;99.90
40053;DHT22;25758;48.200;16.338;2022-10-16T00:14:51;13.80;99.90
40053;DHT22;25758;48.200;16.338;2022-10-16T00:17:17;13.80;99.90
40053;DHT22;25758;48.200;16.338;2022-10-16T00:19:42;13.80;99.90
40053;DHT22;25758;48.200;16.338;2022-10-16T00:22:08;13.80;99.90
40053;DHT22;25758;48.200;16.338;2022-10-16T00:24:34;13.80;99.90
40053;DHT22;25758;48.200;16.338;2022-10-16T00:26:59;13.80;99.90
40053;DHT22;25758;48.200;16.338;2022-10-16T00:29:25;13.80;99.90
40053;DHT22;25758;48.200;16.338;2022-10-16T00:31:50;13.80;99.90
40053;DHT22;25758;48.200;16.338;2022-10-16T00:34:16;13.30;99.90
40053;DHT22;25758;48.200;16.338;2022-10-16T00:36:42;13.80;99.90
40053;DHT22;25758;48.200;16.338;2022-10-16T00:39:07;13.80;99.90
40053;DHT22;25758;48.200;16.338;2022-10-16T00:41:33;13.80;99.90
40053;DHT22;25758;48.200;16.338;2022-10-16T00:44:01;13.80;99.90
40053;DHT22;25758;48.200;16.338;2022-10-16T00:46:28;13.80;99.90
40053;DHT22;25758;48.200;16.338;2022-10-16T00:51:37;13.80;99.90
40053;DHT22;25758;48.200;16.338;2022-10-16T00:54:07;13.70;99.90
40053;DHT22;25758;48.200;16.338;2022-10-16T00:56:33;13.70;99.90
40053;DHT22;25758;48.200;16.338;2022-10-16T00:59:03;13.70;99.90
40053;DHT22;25758;48.200;16.338;2022-10-16T01:01:29;13.70;99.90
40053;DHT22;25758;48.200;16.338;2022-10-16T01:03:54;13.70;99.90
40053;DHT22;25758;48.200;16.338;2022-10-16T01:07:10;13.70;99.90
40053;DHT22;25758;48.200;16.338;2022-10-16T01:09:37;13.70;99.90
40053;DHT22;25758;48.200;16.338;2022-10-16T01:12:10;13.70;99.90
40053;DHT22;25758;48.200;16.338;2022-10-16T01:17:11;13.70;99.90
40053;DHT22;25758;48.200;16.338;2022-10-16T01:19:41;13.70;99.90
40053;DHT22;25758;48.200;16.338;2022-10-16T01:22:09;13.70;99.90
40053;DHT22;25758;48.200;16.338;2022-10-16T01:24:40;13.70;99.90
40053;DHT22;25758;48.200;16.338;2022-10-16T01:27:12;13.70;99.90
40053;DHT22;25758;48.200;16.338;2022-10-16T01:29:53;13.70;99.90
40053;DHT22;25758;48.200;16.338;2022-10-16T01:32:33;13.70;99.90
40053;DHT22;25758;48.200;16.338;2022-10-16T01:35:14;13.60;99.90
40053;DHT22;25758;48.200;16.338;2022-10-16T01:40:46;13.50;99.90
40053;DHT22;25758;48.200;16.338;2022-10-16T01:43:20;13.50;99.90
40053;DHT22;25758;48.200;16.338;2022-10-16T01:45:48;13.50;99.90
40053;DHT22;25758;48.200;16.338;2022-10-16T01:48:18;13.50;99.90
40053;DHT22;25758;48.200;16.338;2022-10-16T01:51:11;13.50;99.90
40053;DHT22;25758;48.200;16.338;2022-10-16T01:53:36;13.50;99.90
40053;DHT22;25758;48.200;16.338;2022-10-16T01:56:04;13.50;99.90
40053;DHT22;25758;48.200;16.338;2022-10-16T01:58:35;13.50;99.90
40053;DHT22;25758;48.200;16.338;2022-10-16T02:01:03;13.50;99.90
40053;DHT22;25758;48.200;16.338;2022-10-16T02:03:30;13.50;99.90
40053;DHT22;25758;48.200;16.338;2022-10-16T02:05:58;13.40;99.90
40053;DHT22;25758;48.200;16.338;2022-10-16T02:08:28;13.40;99.90
40053;DHT22;25758;48.200;16.338;2022-10-16T02:10:59;13.40;99.90
40053;DHT22;25758;48.200;16.338;2022-10-16T02:13:39;13.40;99.90
40053;DHT22;25758;48.200;16.338;2022-10-16T02:16:08;13.40;99.90
40053;DHT22;25758;48.200;16.338;2022-10-16T02:18:34;13.40;99.90
40053;DHT22;25758;48.200;16.338;2022-10-16T02:26:28;13.50;99.90
40053;DHT22;25758;48.200;16.338;2022-10-16T02:29:00;13.50;99.90
40053;DHT22;25758;48.200;16.338;2022-10-16T02:31:32;13.40;99.90
40053;DHT22;25758;48.200;16.338;2022-10-16T02:34:01;13.40;99.90
40053;DHT22;25758;48.200;16.338;2022-10-16T02:36:28;13.40;99.90
40053;DHT22;25758;48.200;16.338;2022-10-16T02:38:55;13.40;99.90
40053;DHT22;25758;48.200;16.338;2022-10-16T02:41:22;13.30;99.90
40053;DHT22;25758;48.200;16.338;2022-10-16T02:43:48;13.30;99.90
40053;DHT22;25758;48.200;16.338;2022-10-16T02:46:15;13.30;99.90
40053;DHT22;25758;48.200;16.338;2022-10-16T02:48:40;13.30;99.90
40053;DHT22;25758;48.200;16.338;2022-10-16T02:51:06;13.30;99.90
40053;DHT22;25758;48.200;16.338;2022-10-16T02:53:32;13.20;99.90
40053;DHT22;25758;48.200;16.338;2022-10-16T02:55:57;13.20;99.90
40053;DHT22;25758;48.200;16.338;2022-10-16T02:58:23;13.20;99.90
40053;DHT22;25758;48.200;16.338;2022-10-16T03:00:48;13.20;99.90
40053;DHT22;25758;48.200;16.338;2022-10-16T03:03:14;13.20;99.90
40053;DHT22;25758;48.200;16.338;2022-10-16T03:05:40;13.20;99.90
40053;DHT22;25758;48.200;16.338;2022-10-16T03:08:05;13.20;99.90
40053;DHT22;25758;48.200;16.338;2022-10-16T03:10:31;13.20;99.90
40053;DHT22;25758;48.200;16.338;2022-10-16T03:12:56;13.20;99.90
40053;DHT22;25758;48.200;16.338;2022-10-16T03:15:22;13.10;99.90
40053;DHT22;25758;48.200;16.338;2022-10-16T03:17:48;13.20;99.90
40053;DHT22;25758;48.200;16.338;2022-10-16T03:20:13;13.10;99.90
40053;DHT22;25758;48.200;16.338;2022-10-16T03:22:39;13.10;99.90
40053;DHT22;25758;48.200;16.338;2022-10-16T03:25:05;13.20;99.90
40053;DHT22;25758;48.200;16.338;2022-10-16T03:27:31;13.20;99.90
40053;DHT22;25758;48.200;16.338;2022-10-16T03:29:56;13.10;99.90
40053;DHT22;25758;48.200;16.338;2022-10-16T03:32:22;13.10;99.90
40053;DHT22;25758;48.200;16.338;2022-10-16T03:34:50;13.20;99.90
40053;DHT22;25758;48.200;16.338;2022-10-16T03:37:16;13.20;99.90
40053;DHT22;25758;48.200;16.338;2022-10-16T03:39:41;13.20;99.90
40053;DHT22;25758;48.200;16.338;2022-10-16T03:42:07;13.20;99.90
40053;DHT22;25758;48.200;16.338;2022-10-16T03:44:32;13.20;99.90
40053;DHT22;25758;48.200;16.338;2022-10-16T03:46:58;13.20;99.90
40053;DHT22;25758;48.200;16.338;2022-10-16T03:49:23;13.30;99.90
40053;DHT22;25758;48.200;16.338;2022-10-16T03:51:49;13.30;99.90
40053;DHT22;25758;48.200;16.338;2022-10-16T03:54:15;13.30;99.90
40053;DHT22;25758;48.200;16.338;2022-10-16T03:56:40;13.30;99.90
40053;DHT22;25758;48.200;16.338;2022-10-16T03:59:06;13.30;99.90
40053;DHT22;25758;48.200;16.338;2022-10-16T04:01:32;13.30;99.90
40053;DHT22;25758;48.200;16.338;2022-10-16T04:03:57;13.30;99.90
40053;DHT22;25758;48.200;16.338;2022-10-16T04:06:23;13.30;99.90
40053;DHT22;25758;48.200;16.338;2022-10-16T04:08:49;13.30;99.90
40053;DHT22;25758;48.200;16.338;2022-10-16T04:11:14;13.30;99.90
40053;DHT22;25758;48.200;16.338;2022-10-16T04:13:40;13.20;99.90
40053;DHT22;25758;48.200;16.338;2022-10-16T04:16:06;13.20;99.90
40053;DHT22;25758;48.200;16.338;2022-10-16T04:18:32;13.10;99.90
40053;DHT22;25758;48.200;16.338;2022-10-16T04:21:02;13.10;99.90
40053;DHT22;25758;48.200;16.338;2022-10-16T04:23:28;13.00;99.90
40053;DHT22;25758;48.200;16.338;2022-10-16T04:25:54;13.00;99.90
40053;DHT22;25758;48.200;16.338;2022-10-16T04:28:20;13.00;99.90
40053;DHT22;25758;48.200;16.338;2022-10-16T04:30:45;13.00;99.90
40053;DHT22;25758;48.200;16.338;2022-10-16T04:33:11;13.00;99.90
40053;DHT22;25758;48.200;16.338;2022-10-16T04:35:38;12.90;99.90
40053;DHT22;25758;48.200;16.338;2022-10-16T04:38:03;12.90;99.90
40053;DHT22;25758;48.200;16.338;2022-10-16T04:40:29;12.80;99.90
40053;DHT22;25758;48.200;16.338;2022-10-16T04:42:58;12.80;99.90
40053;DHT22;25758;48.200;16.338;2022-10-16T04:45:24;12.70;99.90
40053;DHT22;25758;48.200;16.338;2022-10-16T04:47:50;12.70;99.90
40053;DHT22;25758;48.200;16.338;2022-10-16T04:50:15;12.70;99.90
40053;DHT22;25758;48.200;16.338;2022-10-16T04:52:41;12.70;99.90
40053;DHT22;25758;48.200;16.338;2022-10-16T04:55:07;12.70;99.90
40053;DHT22;25758;48.200;16.338;2022-10-16T04:57:33;12.60;99.90
40053;DHT22;25758;48.200;16.338;2022-10-16T04:59:59;12.70;99.90
40053;DHT22;25758;48.200;16.338;2022-10-16T05:02:24;12.70;99.90
40053;DHT22;25758;48.200;16.338;2022-10-16T05:04:51;12.60;99.90
40053;DHT22;25758;48.200;16.338;2022-10-16T05:07:16;12.60;99.90
40053;DHT22;25758;48.200;16.338;2022-10-16T05:09:42;12.70;99.90
40053;DHT22;25758;48.200;16.338;2022-10-16T05:12:08;12.60;99.90
40053;DHT22;25758;48.200;16.338;2022-10-16T05:14:33;12.70;99.90
40053;DHT22;25758;48.200;16.338;2022-10-16T05:17:00;12.70;99.90
40053;DHT22;25758;48.200;16.338;2022-10-16T05:19:25;12.70;99.90
40053;DHT22;25758;48.200;16.338;2022-10-16T05:21:51;12.70;99.90
40053;DHT22;25758;48.200;16.338;2022-10-16T05:24:17;12.80;99.90
40053;DHT22;25758;48.200;16.338;2022-10-16T05:26:42;12.70;99.90
40053;DHT22;25758;48.200;16.338;2022-10-16T05:29:09;12.70;99.90
40053;DHT22;25758;48.200;16.338;2022-10-16T05:31:35;12.60;99.90
40053;DHT22;25758;48.200;16.338;2022-10-16T05:34:01;12.50;99.90
40053;DHT22;25758;48.200;16.338;2022-10-16T05:36:27;12.40;99.90
40053;DHT22;25758;48.200;16.338;2022-10-16T05:38:53;12.40;99.90
40053;DHT22;25758;48.200;16.338;2022-10-16T05:41:19;12.40;99.90
40053;DHT22;25758;48.200;16.338;2022-10-16T05:43:47;12.30;99.90
40053;DHT22;25758;48.200;16.338;2022-10-16T05:46:13;12.30;99.90
40053;DHT22;25758;48.200;16.338;2022-10-16T05:48:39;12.40;99.90
40053;DHT22;25758;48.200;16.338;2022-10-16T05:51:10;12.40;99.90
40053;DHT22;25758;48.200;16.338;2022-10-16T05:53:37;12.40;99.90
40053;DHT22;25758;48.200;16.338;2022-10-16T05:56:04;12.40;99.90
40053;DHT22;25758;48.200;16.338;2022-10-16T05:58:39;12.40;99.90
40053;DHT22;25758;48.200;16.338;2022-10-16T06:01:14;12.40;99.90
40053;DHT22;25758;48.200;16.338;2022-10-16T06:03:41;12.40;99.90
40053;DHT22;25758;48.200;16.338;2022-10-16T06:06:11;12.40;99.90
40053;DHT22;25758;48.200;16.338;2022-10-16T06:08:37;12.40;99.90
40053;DHT22;25758;48.200;16.338;2022-10-16T06:11:05;12.30;99.90
40053;DHT22;25758;48.200;16.338;2022-10-16T06:13:31;12.30;99.90
40053;DHT22;25758;48.200;16.338;2022-10-16T06:15:58;12.20;99.90
40053;DHT22;25758;48.200;16.338;2022-10-16T06:18:25;12.30;99.90
40053;DHT22;25758;48.200;16.338;2022-10-16T06:20:51;12.40;99.90
40053;DHT22;25758;48.200;16.338;2022-10-16T06:23:18;12.40;99.90
40053;DHT22;25758;48.200;16.338;2022-10-16T06:25:43;12.40;99.90
40053;DHT22;25758;48.200;16.338;2022-10-16T06:28:09;12.40;99.90
40053;DHT22;25758;48.200;16.338;2022-10-16T06:30:34;12.40;99.90
40053;DHT22;25758;48.200;16.338;2022-10-16T06:33:00;12.40;99.90
40053;DHT22;25758;48.200;16.338;2022-10-16T06:35:26;12.40;99.90
40053;DHT22;25758;48.200;16.338;2022-10-16T06:37:53;12.40;99.90
40053;DHT22;25758;48.200;16.338;2022-10-16T06:40:18;12.50;99.90
40053;DHT22;25758;48.200;16.338;2022-10-16T06:42:44;12.50;99.90
40053;DHT22;25758;48.200;16.338;2022-10-16T06:45:10;12.50;99.90
40053;DHT22;25758;48.200;16.338;2022-10-16T06:47:36;12.50;99.90
40053;DHT22;25758;48.200;16.338;2022-10-16T06:50:02;12.60;99.90
40053;DHT22;25758;48.200;16.338;2022-10-16T06:52:29;12.50;99.90
40053;DHT22;25758;48.200;16.338;2022-10-16T06:54:54;12.50;99.90
40053;DHT22;25758;48.200;16.338;2022-10-16T06:57:20;12.50;99.90
40053;DHT22;25758;48.200;16.338;2022-10-16T06:59:46;12.50;99.90
40053;DHT22;25758;48.200;16.338;2022-10-16T07:02:11;12.50;99.90
40053;DHT22;25758;48.200;16.338;2022-10-16T07:04:37;12.50;99.90
40053;DHT22;25758;48.200;16.338;2022-10-16T07:07:02;12.50;99.90
40053;DHT22;25758;48.200;16.338;2022-10-16T07:09:28;12.50;99.90
40053;DHT22;25758;48.200;16.338;2022-10-16T07:11:54;12.50;99.90
40053;DHT22;25758;48.200;16.338;2022-10-16T07:14:21;12.50;99.90
40053;DHT22;25758;48.200;16.338;2022-10-16T07:16:47;12.50;99.90
40053;DHT22;25758;48.200;16.338;2022-10-16T07:19:14;12.50;99.90
40053;DHT22;25758;48.200;16.338;2022-10-16T07:21:41;12.50;99.90
40053;DHT22;25758;48.200;16.338;2022-10-16T07:24:12;12.50;99.90
40053;DHT22;25758;48.200;16.338;2022-10-16T07:26:39;12.40;99.90
40053;DHT22;25758;48.200;16.338;2022-10-16T07:29:07;12.50;99.90
40053;DHT22;25758;48.200;16.338;2022-10-16T07:31:36;12.50;99.90
40053;DHT22;25758;48.200;16.338;2022-10-16T07:34:02;12.50;99.90
40053;DHT22;25758;48.200;16.338;2022-10-16T07:36:27;12.60;99.90
40053;DHT22;25758;48.200;16.338;2022-10-16T07:38:53;12.60;99.90
40053;DHT22;25758;48.200;16.338;2022-10-16T07:41:19;12.50;99.90
40053;DHT22;25758;48.200;16.338;2022-10-16T07:43:50;12.60;99.90
40053;DHT22;25758;48.200;16.338;2022-10-16T07:46:16;12.60;99.90
40053;DHT22;25758;48.200;16.338;2022-10-16T07:48:42;12.50;99.90
40053;DHT22;25758;48.200;16.338;2022-10-16T07:51:11;12.60;99.90
40053;DHT22;25758;48.200;16.338;2022-10-16T07:53:37;12.50;99.90
40053;DHT22;25758;48.200;16.338;2022-10-16T07:56:05;12.50;99.90
40053;DHT22;25758;48.200;16.338;2022-10-16T07:58:32;12.50;99.90
40053;DHT22;25758;48.200;16.338;2022-10-16T08:00:58;12.50;99.90
40053;DHT22;25758;48.200;16.338;2022-10-16T08:03:25;12.50;99.90
40053;DHT22;25758;48.200;16.338;2022-10-16T08:05:51;12.50;99.90
40053;DHT22;25758;48.200;16.338;2022-10-16T08:08:18;12.50;99.90
40053;DHT22;25758;48.200;16.338;2022-10-16T08:10:44;12.50;99.90
40053;DHT22;25758;48.200;16.338;2022-10-16T08:13:09;12.50;99.90
40053;DHT22;25758;48.200;16.338;2022-10-16T08:15:35;12.50;99.90
40053;DHT22;25758;48.200;16.338;2022-10-16T08:18:03;12.50;99.90
40053;DHT22;25758;48.200;16.338;2022-10-16T08:20:30;12.60;99.90
40053;DHT22;25758;48.200;16.338;2022-10-16T08:22:56;12.60;99.90
40053;DHT22;25758;48.200;16.338;2022-10-16T08:25:23;12.60;99.90
40053;DHT22;25758;48.200;16.338;2022-10-16T08:27:49;12.60;99.90
40053;DHT22;25758;48.200;16.338;2022-10-16T08:30:19;12.60;99.90
40053;DHT22;25758;48.200;16.338;2022-10-16T08:32:45;12.60;99.90
40053;DHT22;25758;48.200;16.338;2022-10-16T08:35:12;12.60;99.90
40053;DHT22;25758;48.200;16.338;2022-10-16T08:37:38;12.60;99.90
40053;DHT22;25758;48.200;16.338;2022-10-16T08:40:06;12.70;99.90
40053;DHT22;25758;48.200;16.338;2022-10-16T08:42:47;12.70;99.90
40053;DHT22;25758;48.200;16.338;2022-10-16T08:50:51;12.80;99.90
40053;DHT22;25758;48.200;16.338;2022-10-16T08:56:04;12.80;99.90
40053;DHT22;25758;48.200;16.338;2022-10-16T08:58:31;12.90;99.90
40053;DHT22;25758;48.200;16.338;2022-10-16T09:00:59;12.90;99.90
40053;DHT22;25758;48.200;16.338;2022-10-16T09:06:18;12.90;99.90
40053;DHT22;25758;48.200;16.338;2022-10-16T09:12:19;13.00;99.90
40053;DHT22;25758;48.200;16.338;2022-10-16T09:15:07;13.00;99.90
40053;DHT22;25758;48.200;16.338;2022-10-16T09:20:35;13.00;99.90
40053;DHT22;25758;48.200;16.338;2022-10-16T09:25:29;13.10;99.90
40053;DHT22;25758;48.200;16.338;2022-10-16T09:27:55;13.10;99.90
40053;DHT22;25758;48.200;16.338;2022-10-16T09:30:22;13.10;99.90
40053;DHT22;25758;48.200;16.338;2022-10-16T09:32:51;13.20;99.90
40053;DHT22;25758;48.200;16.338;2022-10-16T09:35:22;13.20;99.90
40053;DHT22;25758;48.200;16.338;2022-10-16T09:37:50;13.30;99.90
40053;DHT22;25758;48.200;16.338;2022-10-16T09:40:35;13.30;99.90
40053;DHT22;25758;48.200;16.338;2022-10-16T09:46:09;13.20;99.90
40053;DHT22;25758;48.200;16.338;2022-10-16T09:48:50;13.20;99.90
40053;DHT22;25758;48.200;16.338;2022-10-16T09:51:23;13.20;99.90
40053;DHT22;25758;48.200;16.338;2022-10-16T09:53:57;13.20;99.90
40053;DHT22;25758;48.200;16.338;2022-10-16T09:58:56;13.30;99.90
40053;DHT22;25758;48.200;16.338;2022-10-16T10:01:35;13.40;99.90
40053;DHT22;25758;48.200;16.338;2022-10-16T10:04:02;13.40;99.90
40053;DHT22;25758;48.200;16.338;2022-10-16T10:06:34;13.50;99.90
40053;DHT22;25758;48.200;16.338;2022-10-16T10:09:14;13.50;99.90
40053;DHT22;25758;48.200;16.338;2022-10-16T10:11:59;13.60;99.90
40053;DHT22;25758;48.200;16.338;2022-10-16T10:17:11;13.60;99.90
40053;DHT22;25758;48.200;16.338;2022-10-16T10:22:31;13.70;99.90
40053;DHT22;25758;48.200;16.338;2022-10-16T10:28:04;13.80;99.90
40053;DHT22;25758;48.200;16.338;2022-10-16T10:38:27;13.90;99.90
40053;DHT22;25758;48.200;16.338;2022-10-16T10:41:18;13.90;99.90
40053;DHT22;25758;48.200;16.338;2022-10-16T10:46:50;13.90;99.90
40053;DHT22;25758;48.200;16.338;2022-10-16T10:49:34;13.90;99.90
40053;DHT22;25758;48.200;16.338;2022-10-16T11:04:03;14.00;99.90
40053;DHT22;25758;48.200;16.338;2022-10-16T11:06:20;14.00;99.90
40053;DHT22;25758;48.200;16.338;2022-10-16T11:14:20;14.20;99.90
40053;DHT22;25758;48.200;16.338;2022-10-16T11:19:28;14.40;99.90
40053;DHT22;25758;48.200;16.338;2022-10-16T11:25:15;14.60;99.90
40053;DHT22;25758;48.200;16.338;2022-10-16T11:30:27;14.80;99.90
40053;DHT22;25758;48.200;16.338;2022-10-16T11:33:00;14.80;99.90
40053;DHT22;25758;48.200;16.338;2022-10-16T11:38:26;15.20;99.90
40053;DHT22;25758;48.200;16.338;2022-10-16T11:40:56;15.40;99.90
40053;DHT22;25758;48.200;16.338;2022-10-16T11:43:37;15.70;99.90
40053;DHT22;25758;48.200;16.338;2022-10-16T11:46:16;15.90;99.90
40053;DHT22;25758;48.200;16.338;2022-10-16T11:51:29;16.10;99.90
40053;DHT22;25758;48.200;16.338;2022-10-16T11:56:48;16.10;99.90
40053;DHT22;25758;48.200;16.338;2022-10-16T11:59:38;16.10;99.90
40053;DHT22;25758;48.200;16.338;2022-10-16T12:10:34;16.30;99.90
40053;DHT22;25758;48.200;16.338;2022-10-16T12:13:35;16.40;99.90
40053;DHT22;25758;48.200;16.338;2022-10-16T12:16:21;16.50;99.90
40053;DHT22;25758;48.200;16.338;2022-10-16T12:18:47;16.50;99.90
40053;DHT22;25758;48.200;16.338;2022-10-16T12:21:15;16.60;99.90
40053;DHT22;25758;48.200;16.338;2022-10-16T12:23:50;16.60;99.90
40053;DHT22;25758;48.200;16.338;2022-10-16T12:26:27;16.70;99.90
40053;DHT22;25758;48.200;16.338;2022-10-16T12:28:54;16.70;99.90
40053;DHT22;25758;48.200;16.338;2022-10-16T12:31:21;16.70;99.90
40053;DHT22;25758;48.200;16.338;2022-10-16T12:33:59;16.80;99.90
40053;DHT22;25758;48.200;16.338;2022-10-16T12:36:29;17.00;99.90
40053;DHT22;25758;48.200;16.338;2022-10-16T12:38:55;17.00;99.90
40053;DHT22;25758;48.200;16.338;2022-10-16T12:41:32;17.00;99.90
40053;DHT22;25758;48.200;16.338;2022-10-16T12:43:59;17.10;99.90
40053;DHT22;25758;48.200;16.338;2022-10-16T12:51:40;17.40;99.90
40053;DHT22;25758;48.200;16.338;2022-10-16T12:54:16;17.40;99.90
40053;DHT22;25758;48.200;16.338;2022-10-16T13:23:54;18.10;99.90
40053;DHT22;25758;48.200;16.338;2022-10-16T13:27:07;18.10;99.90
40053;DHT22;25758;48.200;16.338;2022-10-16T13:29:35;18.20;99.90
40053;DHT22;25758;48.200;16.338;2022-10-16T13:32:07;18.20;99.90
40053;DHT22;25758;48.200;16.338;2022-10-16T13:34:46;18.30;99.90
40053;DHT22;25758;48.200;16.338;2022-10-16T13:37:21;18.40;99.90
40053;DHT22;25758;48.200;16.338;2022-10-16T13:39:47;18.40;99.90
40053;DHT22;25758;48.200;16.338;2022-10-16T13:42:31;18.50;99.90
40053;DHT22;25758;48.200;16.338;2022-10-16T13:44:58;18.50;99.90
40053;DHT22;25758;48.200;16.338;2022-10-16T13:47:26;18.40;99.90
40053;DHT22;25758;48.200;16.338;2022-10-16T13:50:06;18.40;99.90
40053;DHT22;25758;48.200;16.338;2022-10-16T13:52:34;18.40;99.90
40053;DHT22;25758;48.200;16.338;2022-10-16T13:55:00;18.40;99.90
40053;DHT22;25758;48.200;16.338;2022-10-16T13:57:25;18.40;99.90
40053;DHT22;25758;48.200;16.338;2022-10-16T13:59:53;18.50;99.90
40053;DHT22;25758;48.200;16.338;2022-10-16T14:02:31;18.50;99.90
40053;DHT22;25758;48.200;16.338;2022-10-16T14:05:01;18.50;99.90
40053;DHT22;25758;48.200;16.338;2022-10-16T14:07:32;18.60;99.90
40053;DHT22;25758;48.200;16.338;2022-10-16T14:10:18;18.60;99.90
40053;DHT22;25758;48.200;16.338;2022-10-16T14:12:53;18.70;99.90
40053;DHT22;25758;48.200;16.338;2022-10-16T14:15:19;18.70;99.90
40053;DHT22;25758;48.200;16.338;2022-10-16T14:17:50;18.70;99.90
40053;DHT22;25758;48.200;16.338;2022-10-16T14:20:27;18.80;99.90
40053;DHT22;25758;48.200;16.338;2022-10-16T14:23:04;18.80;99.90
40053;DHT22;25758;48.200;16.338;2022-10-16T14:25:32;18.80;99.90
40053;DHT22;25758;48.200;16.338;2022-10-16T14:30:36;18.90;99.90
40053;DHT22;25758;48.200;16.338;2022-10-16T14:33:04;18.90;99.90
40053;DHT22;25758;48.200;16.338;2022-10-16T14:35:36;18.90;99.90
40053;DHT22;25758;48.200;16.338;2022-10-16T14:38:04;18.90;99.90
40053;DHT22;25758;48.200;16.338;2022-10-16T14:40:36;19.00;99.90
40053;DHT22;25758;48.200;16.338;2022-10-16T14:43:03;18.90;99.90
40053;DHT22;25758;48.200;16.338;2022-10-16T14:45:31;18.90;99.90
40053;DHT22;25758;48.200;16.338;2022-10-16T14:48:01;18.90;99.90
40053;DHT22;25758;48.200;16.338;2022-10-16T14:50:28;18.90;99.90
40053;DHT22;25758;48.200;16.338;2022-10-16T14:52:54;18.90;99.90
40053;DHT22;25758;48.200;16.338;2022-10-16T14:55:20;18.90;99.90
40053;DHT22;25758;48.200;16.338;2022-10-16T14:57:46;18.80;99.90
40053;DHT22;25758;48.200;16.338;2022-10-16T15:00:19;18.80;99.90
40053;DHT22;25758;48.200;16.338;2022-10-16T15:02:46;18.90;99.90
40053;DHT22;25758;48.200;16.338;2022-10-16T15:05:27;18.90;99.90
40053;DHT22;25758;48.200;16.338;2022-10-16T15:07:54;18.90;99.90
40053;DHT22;25758;48.200;16.338;2022-10-16T15:10:22;18.90;99.90
40053;DHT22;25758;48.200;16.338;2022-10-16T15:12:48;18.80;99.90
40053;DHT22;25758;48.200;16.338;2022-10-16T15:17:52;18.80;99.90
40053;DHT22;25758;48.200;16.338;2022-10-16T15:20:21;18.80;99.90
40053;DHT22;25758;48.200;16.338;2022-10-16T15:22:46;18.80;99.90
40053;DHT22;25758;48.200;16.338;2022-10-16T15:25:37;18.70;99.90
40053;DHT22;25758;48.200;16.338;2022-10-16T15:28:05;18.70;99.90
40053;DHT22;25758;48.200;16.338;2022-10-16T15:30:32;18.70;99.90
40053;DHT22;25758;48.200;16.338;2022-10-16T15:32:58;18.70;99.90
40053;DHT22;25758;48.200;16.338;2022-10-16T15:35:24;18.70;99.90
40053;DHT22;25758;48.200;16.338;2022-10-16T15:37:50;18.70;99.90
40053;DHT22;25758;48.200;16.338;2022-10-16T15:40:17;18.60;99.90
40053;DHT22;25758;48.200;16.338;2022-10-16T15:42:43;18.70;99.90
40053;DHT22;25758;48.200;16.338;2022-10-16T15:45:10;18.60;99.90
40053;DHT22;25758;48.200;16.338;2022-10-16T15:47:37;18.60;99.90
40053;DHT22;25758;48.200;16.338;2022-10-16T15:50:03;18.60;99.90
40053;DHT22;25758;48.200;16.338;2022-10-16T15:52:29;18.60;99.90
40053;DHT22;25758;48.200;16.338;2022-10-16T15:54:57;18.60;99.90
40053;DHT22;25758;48.200;16.338;2022-10-16T15:57:23;18.50;99.90
40053;DHT22;25758;48.200;16.338;2022-10-16T15:59:49;18.50;99.90
40053;DHT22;25758;48.200;16.338;2022-10-16T16:02:15;18.50;99.90
40053;DHT22;25758;48.200;16.338;2022-10-16T16:04:41;18.50;99.90
40053;DHT22;25758;48.200;16.338;2022-10-16T16:07:07;18.50;99.90
40053;DHT22;25758;48.200;16.338;2022-10-16T16:09:33;18.40;99.90
40053;DHT22;25758;48.200;16.338;2022-10-16T16:11:59;18.40;99.90
40053;DHT22;25758;48.200;16.338;2022-10-16T16:14:27;18.40;99.90
40053;DHT22;25758;48.200;16.338;2022-10-16T16:16:56;18.40;99.90
40053;DHT22;25758;48.200;16.338;2022-10-16T16:19:22;18.30;99.90
40053;DHT22;25758;48.200;16.338;2022-10-16T16:21:48;18.30;99.90
40053;DHT22;25758;48.200;16.338;2022-10-16T16:24:14;18.30;99.90
40053;DHT22;25758;48.200;16.338;2022-10-16T16:26:40;18.30;99.90
40053;DHT22;25758;48.200;16.338;2022-10-16T16:29:14;18.20;99.90
40053;DHT22;25758;48.200;16.338;2022-10-16T16:31:40;18.20;99.90
40053;DHT22;25758;48.200;16.338;2022-10-16T16:34:06;18.20;99.90
40053;DHT22;25758;48.200;16.338;2022-10-16T16:36:33;18.10;99.90
40053;DHT22;25758;48.200;16.338;2022-10-16T16:38:59;18.10;99.90
40053;DHT22;25758;48.200;16.338;2022-10-16T16:41:29;18.10;99.90
40053;DHT22;25758;48.200;16.338;2022-10-16T16:44:00;18.10;99.90
40053;DHT22;25758;48.200;16.338;2022-10-16T16:46:27;18.00;99.90
40053;DHT22;25758;48.200;16.338;2022-10-16T16:48:52;18.00;99.90
40053;DHT22;25758;48.200;16.338;2022-10-16T16:51:21;18.00;99.90
40053;DHT22;25758;48.200;16.338;2022-10-16T16:53:51;18.00;99.90
40053;DHT22;25758;48.200;16.338;2022-10-16T16:56:18;18.00;99.90
40053;DHT22;25758;48.200;16.338;2022-10-16T16:58:47;18.00;99.90
40053;DHT22;25758;48.200;16.338;2022-10-16T17:01:14;18.00;99.90
40053;DHT22;25758;48.200;16.338;2022-10-16T17:03:43;17.90;99.90
40053;DHT22;25758;48.200;16.338;2022-10-16T17:06:15;17.90;99.90
40053;DHT22;25758;48.200;16.338;2022-10-16T17:08:41;17.90;99.90
40053;DHT22;25758;48.200;16.338;2022-10-16T17:11:13;17.90;99.90
40053;DHT22;25758;48.200;16.338;2022-10-16T17:13:40;17.80;99.90
40053;DHT22;25758;48.200;16.338;2022-10-16T17:16:06;17.80;99.90
40053;DHT22;25758;48.200;16.338;2022-10-16T17:18:33;17.80;99.90
40053;DHT22;25758;48.200;16.338;2022-10-16T17:21:06;17.80;99.90
40053;DHT22;25758;48.200;16.338;2022-10-16T17:23:34;17.70;99.90
40053;DHT22;25758;48.200;16.338;2022-10-16T17:26:19;17.70;99.90
40053;DHT22;25758;48.200;16.338;2022-10-16T17:28:45;17.70;99.90
40053;DHT22;25758;48.200;16.338;2022-10-16T17:33:39;17.70;99.90
40053;DHT22;25758;48.200;16.338;2022-10-16T17:36:05;17.70;99.90
40053;DHT22;25758;48.200;16.338;2022-10-16T17:38:31;17.60;99.90
40053;DHT22;25758;48.200;16.338;2022-10-16T17:40:58;17.60;99.90
40053;DHT22;25758;48.200;16.338;2022-10-16T17:43:24;17.60;99.90
40053;DHT22;25758;48.200;16.338;2022-10-16T17:45:50;17.60;99.90